Terminal Aerodrome Forecast
Issued by NWS Lake Charles, LA

Home | Current Version | Previous Version | Text Only | Print | Product List | Glossary On
Versions: 1 2 3 4 5 6 7 8 9 10 11 12 13 14 15 16 17
263
FTUS44 KLCH 250520
TAFARA
TAF
KARA 250520Z 2506/2606 15014G22KT P6SM SCT015 OVC025
      TEMPO 2506/2510 BKN015 OVC025
     FM251000 VRB19G28KT 2SM +TSRA BKN012CB OVC020
     FM251200 19014G20KT P6SM OVC010
     FM251400 21016G24KT P6SM VCSH OVC015
      TEMPO 2515/2517 3SM SHRA
     FM251900 22014G19KT P6SM SCT030
     FM260000 21008KT P6SM SCT250=

USA.gov is the U.S. government's official web portal to all federal, state and local government web resources and services.